sensor_id;sensor_type;location;lat;lon;timestamp;temperature;humidity
23755;DHT22;12057;52.042;6.830;2022-08-19T00:03:40;17.40;99.90
23755;DHT22;12057;52.042;6.830;2022-08-19T00:08:40;17.40;99.90
23755;DHT22;12057;52.042;6.830;2022-08-19T00:13:41;17.30;99.90
23755;DHT22;12057;52.042;6.830;2022-08-19T00:18:42;17.30;99.90
23755;DHT22;12057;52.042;6.830;2022-08-19T00:23:42;17.30;99.90
23755;DHT22;12057;52.042;6.830;2022-08-19T00:28:46;17.20;99.90
23755;DHT22;12057;52.042;6.830;2022-08-19T00:33:47;17.10;99.90
23755;DHT22;12057;52.042;6.830;2022-08-19T00:38:49;17.00;99.90
23755;DHT22;12057;52.042;6.830;2022-08-19T00:44:12;17.00;99.90
23755;DHT22;12057;52.042;6.830;2022-08-19T00:54:15;16.90;99.90
23755;DHT22;12057;52.042;6.830;2022-08-19T00:59:16;16.90;99.90
23755;DHT22;12057;52.042;6.830;2022-08-19T01:04:17;16.90;99.90
23755;DHT22;12057;52.042;6.830;2022-08-19T01:09:18;16.80;99.90
23755;DHT22;12057;52.042;6.830;2022-08-19T01:14:18;16.70;99.90
23755;DHT22;12057;52.042;6.830;2022-08-19T01:24:26;16.70;99.90
23755;DHT22;12057;52.042;6.830;2022-08-19T01:29:27;16.50;99.90
23755;DHT22;12057;52.042;6.830;2022-08-19T01:34:29;16.50;99.90
23755;DHT22;12057;52.042;6.830;2022-08-19T01:39:30;16.50;99.90
23755;DHT22;12057;52.042;6.830;2022-08-19T01:44:30;16.40;99.90
23755;DHT22;12057;52.042;6.830;2022-08-19T01:49:32;16.40;99.90
23755;DHT22;12057;52.042;6.830;2022-08-19T01:54:32;16.40;99.90
23755;DHT22;12057;52.042;6.830;2022-08-19T01:59:33;16.30;99.90
23755;DHT22;12057;52.042;6.830;2022-08-19T02:04:36;16.40;99.90
23755;DHT22;12057;52.042;6.830;2022-08-19T02:09:40;16.30;99.90
23755;DHT22;12057;52.042;6.830;2022-08-19T02:14:40;16.30;99.90
23755;DHT22;12057;52.042;6.830;2022-08-19T02:19:41;16.30;99.90
23755;DHT22;12057;52.042;6.830;2022-08-19T02:24:42;16.20;99.90
23755;DHT22;12057;52.042;6.830;2022-08-19T02:29:42;16.20;99.90
23755;DHT22;12057;52.042;6.830;2022-08-19T02:34:43;16.20;99.90
23755;DHT22;12057;52.042;6.830;2022-08-19T02:39:44;16.10;99.90
23755;DHT22;12057;52.042;6.830;2022-08-19T02:44:44;16.10;99.90
23755;DHT22;12057;52.042;6.830;2022-08-19T02:49:45;16.10;99.90
23755;DHT22;12057;52.042;6.830;2022-08-19T02:54:46;16.00;99.90
23755;DHT22;12057;52.042;6.830;2022-08-19T02:59:46;16.00;99.90
23755;DHT22;12057;52.042;6.830;2022-08-19T03:04:47;15.80;99.90
23755;DHT22;12057;52.042;6.830;2022-08-19T03:09:47;15.80;99.90
23755;DHT22;12057;52.042;6.830;2022-08-19T03:14:48;15.90;99.90
23755;DHT22;12057;52.042;6.830;2022-08-19T03:19:49;15.90;99.90
23755;DHT22;12057;52.042;6.830;2022-08-19T03:24:49;16.10;99.90
23755;DHT22;12057;52.042;6.830;2022-08-19T03:29:50;16.10;99.90
23755;DHT22;12057;52.042;6.830;2022-08-19T03:34:51;16.00;99.90
23755;DHT22;12057;52.042;6.830;2022-08-19T03:39:53;16.10;99.90
23755;DHT22;12057;52.042;6.830;2022-08-19T03:44:53;16.00;99.90
23755;DHT22;12057;52.042;6.830;2022-08-19T03:49:54;16.10;99.90
23755;DHT22;12057;52.042;6.830;2022-08-19T03:54:54;16.20;99.90
23755;DHT22;12057;52.042;6.830;2022-08-19T03:59:55;16.20;99.90
23755;DHT22;12057;52.042;6.830;2022-08-19T04:04:56;16.20;99.90
23755;DHT22;12057;52.042;6.830;2022-08-19T04:09:56;16.20;99.90
23755;DHT22;12057;52.042;6.830;2022-08-19T04:14:57;16.10;99.90
23755;DHT22;12057;52.042;6.830;2022-08-19T04:19:58;16.00;99.90
23755;DHT22;12057;52.042;6.830;2022-08-19T04:24:59;16.00;99.90
23755;DHT22;12057;52.042;6.830;2022-08-19T04:30:00;16.00;99.90
23755;DHT22;12057;52.042;6.830;2022-08-19T04:35:01;15.90;99.90
23755;DHT22;12057;52.042;6.830;2022-08-19T04:40:02;15.90;99.90
23755;DHT22;12057;52.042;6.830;2022-08-19T04:45:22;15.90;99.90
23755;DHT22;12057;52.042;6.830;2022-08-19T04:50:22;15.80;99.90
23755;DHT22;12057;52.042;6.830;2022-08-19T04:55:23;15.70;99.90
23755;DHT22;12057;52.042;6.830;2022-08-19T05:00:25;15.70;99.90
23755;DHT22;12057;52.042;6.830;2022-08-19T05:05:26;15.80;99.90
23755;DHT22;12057;52.042;6.830;2022-08-19T05:10:27;15.80;99.90
23755;DHT22;12057;52.042;6.830;2022-08-19T05:15:27;15.90;99.90
23755;DHT22;12057;52.042;6.830;2022-08-19T05:20:31;16.00;99.90
23755;DHT22;12057;52.042;6.830;2022-08-19T05:25:50;16.10;99.90
23755;DHT22;12057;52.042;6.830;2022-08-19T05:30:51;16.20;99.90
23755;DHT22;12057;52.042;6.830;2022-08-19T05:35:52;16.30;99.90
23755;DHT22;12057;52.042;6.830;2022-08-19T05:40:53;16.40;99.90
23755;DHT22;12057;52.042;6.830;2022-08-19T05:45:53;16.40;99.90
23755;DHT22;12057;52.042;6.830;2022-08-19T05:50:54;16.50;99.90
23755;DHT22;12057;52.042;6.830;2022-08-19T05:55:54;16.70;99.90
23755;DHT22;12057;52.042;6.830;2022-08-19T06:00:55;16.80;99.90
23755;DHT22;12057;52.042;6.830;2022-08-19T06:05:56;17.00;99.90
23755;DHT22;12057;52.042;6.830;2022-08-19T06:10:58;17.20;99.90
23755;DHT22;12057;52.042;6.830;2022-08-19T06:16:14;17.50;99.90
23755;DHT22;12057;52.042;6.830;2022-08-19T06:21:23;17.60;99.90
23755;DHT22;12057;52.042;6.830;2022-08-19T06:26:25;17.90;99.90
23755;DHT22;12057;52.042;6.830;2022-08-19T06:31:27;18.10;99.90
23755;DHT22;12057;52.042;6.830;2022-08-19T06:36:30;18.20;99.90
23755;DHT22;12057;52.042;6.830;2022-08-19T06:41:34;18.40;99.90
23755;DHT22;12057;52.042;6.830;2022-08-19T06:46:36;18.40;99.90
23755;DHT22;12057;52.042;6.830;2022-08-19T06:51:37;18.60;99.90
23755;DHT22;12057;52.042;6.830;2022-08-19T06:56:38;18.70;99.90
23755;DHT22;12057;52.042;6.830;2022-08-19T07:01:43;18.80;99.90
23755;DHT22;12057;52.042;6.830;2022-08-19T07:06:46;19.10;99.90
23755;DHT22;12057;52.042;6.830;2022-08-19T07:11:50;19.40;99.90
23755;DHT22;12057;52.042;6.830;2022-08-19T07:16:53;19.90;99.90
23755;DHT22;12057;52.042;6.830;2022-08-19T07:22:00;20.10;99.90
23755;DHT22;12057;52.042;6.830;2022-08-19T07:27:03;20.30;99.90
23755;DHT22;12057;52.042;6.830;2022-08-19T07:32:04;20.50;99.90
23755;DHT22;12057;52.042;6.830;2022-08-19T07:37:06;20.90;99.90
23755;DHT22;12057;52.042;6.830;2022-08-19T07:42:08;21.30;99.90
23755;DHT22;12057;52.042;6.830;2022-08-19T07:47:10;21.50;99.90
23755;DHT22;12057;52.042;6.830;2022-08-19T07:52:10;21.80;99.90
23755;DHT22;12057;52.042;6.830;2022-08-19T07:57:11;22.20;99.90
23755;DHT22;12057;52.042;6.830;2022-08-19T08:02:12;22.60;99.90
23755;DHT22;12057;52.042;6.830;2022-08-19T08:07:13;22.90;99.90
23755;DHT22;12057;52.042;6.830;2022-08-19T08:12:37;23.30;99.90
23755;DHT22;12057;52.042;6.830;2022-08-19T08:17:41;23.80;99.90
23755;DHT22;12057;52.042;6.830;2022-08-19T08:22:43;24.30;99.90
23755;DHT22;12057;52.042;6.830;2022-08-19T08:28:03;24.60;99.90
23755;DHT22;12057;52.042;6.830;2022-08-19T08:33:04;24.60;99.90
23755;DHT22;12057;52.042;6.830;2022-08-19T08:38:05;24.70;99.90
23755;DHT22;12057;52.042;6.830;2022-08-19T08:48:20;24.90;99.90
23755;DHT22;12057;52.042;6.830;2022-08-19T08:53:22;24.80;99.90
23755;DHT22;12057;52.042;6.830;2022-08-19T08:58:29;25.00;99.90
23755;DHT22;12057;52.042;6.830;2022-08-19T09:03:32;25.10;99.90
23755;DHT22;12057;52.042;6.830;2022-08-19T09:08:40;25.40;99.90
23755;DHT22;12057;52.042;6.830;2022-08-19T09:18:47;25.90;99.90
23755;DHT22;12057;52.042;6.830;2022-08-19T09:23:48;25.90;99.90
23755;DHT22;12057;52.042;6.830;2022-08-19T09:28:49;26.00;99.90
23755;DHT22;12057;52.042;6.830;2022-08-19T09:33:51;26.10;99.90
23755;DHT22;12057;52.042;6.830;2022-08-19T09:38:52;26.40;99.90
23755;DHT22;12057;52.042;6.830;2022-08-19T09:43:53;26.40;99.90
23755;DHT22;12057;52.042;6.830;2022-08-19T09:48:57;26.30;99.90
23755;DHT22;12057;52.042;6.830;2022-08-19T09:54:00;26.60;99.90
23755;DHT22;12057;52.042;6.830;2022-08-19T09:59:01;26.50;99.90
23755;DHT22;12057;52.042;6.830;2022-08-19T10:04:02;26.70;99.90
23755;DHT22;12057;52.042;6.830;2022-08-19T10:09:09;27.00;99.90
23755;DHT22;12057;52.042;6.830;2022-08-19T10:14:10;26.90;99.90
23755;DHT22;12057;52.042;6.830;2022-08-19T10:19:10;27.50;99.90
23755;DHT22;12057;52.042;6.830;2022-08-19T10:24:11;28.10;99.90
23755;DHT22;12057;52.042;6.830;2022-08-19T10:29:11;27.90;99.90
23755;DHT22;12057;52.042;6.830;2022-08-19T10:34:12;28.20;99.90
23755;DHT22;12057;52.042;6.830;2022-08-19T10:39:13;27.60;99.90
23755;DHT22;12057;52.042;6.830;2022-08-19T10:44:13;27.70;99.90
23755;DHT22;12057;52.042;6.830;2022-08-19T10:49:16;28.40;99.90
23755;DHT22;12057;52.042;6.830;2022-08-19T10:54:16;28.80;99.60
23755;DHT22;12057;52.042;6.830;2022-08-19T10:59:21;29.00;99.80
23755;DHT22;12057;52.042;6.830;2022-08-19T11:04:22;28.80;99.50
23755;DHT22;12057;52.042;6.830;2022-08-19T11:09:23;29.20;98.80
23755;DHT22;12057;52.042;6.830;2022-08-19T11:14:30;29.40;96.40
23755;DHT22;12057;52.042;6.830;2022-08-19T11:19:33;29.20;96.80
23755;DHT22;12057;52.042;6.830;2022-08-19T11:24:34;29.40;97.20
23755;DHT22;12057;52.042;6.830;2022-08-19T11:29:35;29.80;95.60
23755;DHT22;12057;52.042;6.830;2022-08-19T11:34:37;29.50;93.30
23755;DHT22;12057;52.042;6.830;2022-08-19T11:39:38;29.30;94.80
23755;DHT22;12057;52.042;6.830;2022-08-19T11:44:39;28.80;94.20
23755;DHT22;12057;52.042;6.830;2022-08-19T11:49:39;28.20;93.50
23755;DHT22;12057;52.042;6.830;2022-08-19T11:54:40;27.80;96.80
23755;DHT22;12057;52.042;6.830;2022-08-19T11:59:40;28.00;95.80
23755;DHT22;12057;52.042;6.830;2022-08-19T12:04:41;28.50;94.80
23755;DHT22;12057;52.042;6.830;2022-08-19T12:09:42;28.90;93.50
23755;DHT22;12057;52.042;6.830;2022-08-19T12:14:43;29.30;90.20
23755;DHT22;12057;52.042;6.830;2022-08-19T12:19:43;29.70;91.80
23755;DHT22;12057;52.042;6.830;2022-08-19T12:24:44;29.90;90.70
23755;DHT22;12057;52.042;6.830;2022-08-19T12:29:45;30.00;91.90
23755;DHT22;12057;52.042;6.830;2022-08-19T12:34:45;29.40;89.50
23755;DHT22;12057;52.042;6.830;2022-08-19T12:39:47;29.60;90.80
23755;DHT22;12057;52.042;6.830;2022-08-19T12:44:48;30.00;88.70
23755;DHT22;12057;52.042;6.830;2022-08-19T12:49:48;29.80;87.70
23755;DHT22;12057;52.042;6.830;2022-08-19T12:54:50;29.40;90.00
23755;DHT22;12057;52.042;6.830;2022-08-19T12:59:52;29.70;87.80
23755;DHT22;12057;52.042;6.830;2022-08-19T13:04:53;29.40;90.70
23755;DHT22;12057;52.042;6.830;2022-08-19T13:09:57;29.70;91.10
23755;DHT22;12057;52.042;6.830;2022-08-19T13:14:58;30.00;90.90
23755;DHT22;12057;52.042;6.830;2022-08-19T13:19:59;30.40;86.10
23755;DHT22;12057;52.042;6.830;2022-08-19T13:25:00;30.60;90.40
23755;DHT22;12057;52.042;6.830;2022-08-19T13:30:04;30.50;89.30
23755;DHT22;12057;52.042;6.830;2022-08-19T13:35:24;30.50;89.00
23755;DHT22;12057;52.042;6.830;2022-08-19T13:40:25;30.30;89.50
23755;DHT22;12057;52.042;6.830;2022-08-19T13:45:27;30.30;89.40
23755;DHT22;12057;52.042;6.830;2022-08-19T13:50:29;30.20;90.40
23755;DHT22;12057;52.042;6.830;2022-08-19T13:55:31;29.70;90.10
23755;DHT22;12057;52.042;6.830;2022-08-19T14:00:36;29.50;90.00
23755;DHT22;12057;52.042;6.830;2022-08-19T14:05:37;29.50;89.20
23755;DHT22;12057;52.042;6.830;2022-08-19T14:10:37;29.80;86.70
23755;DHT22;12057;52.042;6.830;2022-08-19T14:15:38;29.90;86.60
23755;DHT22;12057;52.042;6.830;2022-08-19T14:20:39;29.90;84.60
23755;DHT22;12057;52.042;6.830;2022-08-19T14:25:39;29.90;81.60
23755;DHT22;12057;52.042;6.830;2022-08-19T14:30:40;29.70;83.70
23755;DHT22;12057;52.042;6.830;2022-08-19T14:35:41;29.60;84.20
23755;DHT22;12057;52.042;6.830;2022-08-19T14:40:45;29.30;79.50
23755;DHT22;12057;52.042;6.830;2022-08-19T14:45:46;29.30;82.90
23755;DHT22;12057;52.042;6.830;2022-08-19T14:50:46;29.20;81.80
23755;DHT22;12057;52.042;6.830;2022-08-19T14:55:47;29.10;82.20
23755;DHT22;12057;52.042;6.830;2022-08-19T15:00:48;29.10;80.70
23755;DHT22;12057;52.042;6.830;2022-08-19T15:05:48;29.10;83.70
23755;DHT22;12057;52.042;6.830;2022-08-19T15:10:49;29.00;82.10
23755;DHT22;12057;52.042;6.830;2022-08-19T15:15:49;28.90;78.30
23755;DHT22;12057;52.042;6.830;2022-08-19T15:20:51;28.70;81.90
23755;DHT22;12057;52.042;6.830;2022-08-19T15:25:52;28.60;83.70
23755;DHT22;12057;52.042;6.830;2022-08-19T15:30:54;28.40;87.50
23755;DHT22;12057;52.042;6.830;2022-08-19T15:35:55;28.30;86.40
23755;DHT22;12057;52.042;6.830;2022-08-19T15:40:57;28.40;86.50
23755;DHT22;12057;52.042;6.830;2022-08-19T15:46:19;28.40;86.60
23755;DHT22;12057;52.042;6.830;2022-08-19T15:51:21;28.40;87.40
23755;DHT22;12057;52.042;6.830;2022-08-19T15:56:22;28.30;89.80
23755;DHT22;12057;52.042;6.830;2022-08-19T16:01:23;28.20;90.00
23755;DHT22;12057;52.042;6.830;2022-08-19T16:06:44;28.10;90.60
23755;DHT22;12057;52.042;6.830;2022-08-19T16:11:45;27.90;90.70
23755;DHT22;12057;52.042;6.830;2022-08-19T16:16:46;27.50;92.10
23755;DHT22;12057;52.042;6.830;2022-08-19T16:21:48;27.20;92.70
23755;DHT22;12057;52.042;6.830;2022-08-19T16:26:52;26.90;93.60
23755;DHT22;12057;52.042;6.830;2022-08-19T16:31:54;26.70;93.60
23755;DHT22;12057;52.042;6.830;2022-08-19T16:36:55;26.50;93.90
23755;DHT22;12057;52.042;6.830;2022-08-19T16:41:56;26.30;96.30
23755;DHT22;12057;52.042;6.830;2022-08-19T16:46:57;26.00;99.30
23755;DHT22;12057;52.042;6.830;2022-08-19T16:51:58;25.70;99.90
23755;DHT22;12057;52.042;6.830;2022-08-19T16:56:59;25.30;99.90
23755;DHT22;12057;52.042;6.830;2022-08-19T17:02:00;25.10;99.90
23755;DHT22;12057;52.042;6.830;2022-08-19T17:07:00;25.00;99.90
23755;DHT22;12057;52.042;6.830;2022-08-19T17:12:02;24.80;99.90
23755;DHT22;12057;52.042;6.830;2022-08-19T17:17:03;24.80;99.90
23755;DHT22;12057;52.042;6.830;2022-08-19T17:22:04;24.80;99.90
23755;DHT22;12057;52.042;6.830;2022-08-19T17:27:04;24.70;99.90
23755;DHT22;12057;52.042;6.830;2022-08-19T17:32:05;24.60;99.90
23755;DHT22;12057;52.042;6.830;2022-08-19T17:37:07;24.60;99.90
23755;DHT22;12057;52.042;6.830;2022-08-19T17:42:07;24.50;99.90
23755;DHT22;12057;52.042;6.830;2022-08-19T17:47:10;24.30;99.90
23755;DHT22;12057;52.042;6.830;2022-08-19T17:52:12;24.10;99.90
23755;DHT22;12057;52.042;6.830;2022-08-19T17:57:12;23.90;99.90
23755;DHT22;12057;52.042;6.830;2022-08-19T18:02:13;23.70;99.90
23755;DHT22;12057;52.042;6.830;2022-08-19T18:07:14;23.50;99.90
23755;DHT22;12057;52.042;6.830;2022-08-19T18:12:23;23.30;99.90
23755;DHT22;12057;52.042;6.830;2022-08-19T18:17:25;22.80;99.90
23755;DHT22;12057;52.042;6.830;2022-08-19T18:22:36;22.50;99.90
23755;DHT22;12057;52.042;6.830;2022-08-19T18:27:37;22.40;99.90
23755;DHT22;12057;52.042;6.830;2022-08-19T18:32:38;22.40;99.90
23755;DHT22;12057;52.042;6.830;2022-08-19T18:37:41;22.40;99.90
23755;DHT22;12057;52.042;6.830;2022-08-19T18:42:43;22.20;99.90
23755;DHT22;12057;52.042;6.830;2022-08-19T18:48:02;22.20;99.90
23755;DHT22;12057;52.042;6.830;2022-08-19T18:53:21;22.20;99.90
23755;DHT22;12057;52.042;6.830;2022-08-19T18:58:23;22.10;99.90
23755;DHT22;12057;52.042;6.830;2022-08-19T19:03:25;22.00;99.90
23755;DHT22;12057;52.042;6.830;2022-08-19T19:08:26;22.00;99.90
23755;DHT22;12057;52.042;6.830;2022-08-19T19:13:27;22.00;99.90
23755;DHT22;12057;52.042;6.830;2022-08-19T19:18:28;21.90;99.90
23755;DHT22;12057;52.042;6.830;2022-08-19T19:23:29;21.80;99.90
23755;DHT22;12057;52.042;6.830;2022-08-19T19:28:30;21.80;99.90
23755;DHT22;12057;52.042;6.830;2022-08-19T19:33:30;21.70;99.90
23755;DHT22;12057;52.042;6.830;2022-08-19T19:38:31;21.60;99.90
23755;DHT22;12057;52.042;6.830;2022-08-19T19:43:32;21.60;99.90
23755;DHT22;12057;52.042;6.830;2022-08-19T19:48:32;21.50;99.90
23755;DHT22;12057;52.042;6.830;2022-08-19T19:53:34;21.50;99.90
23755;DHT22;12057;52.042;6.830;2022-08-19T19:58:35;21.40;99.90
23755;DHT22;12057;52.042;6.830;2022-08-19T20:03:36;21.40;99.90
23755;DHT22;12057;52.042;6.830;2022-08-19T20:08:36;21.30;99.90
23755;DHT22;12057;52.042;6.830;2022-08-19T20:13:56;21.30;99.90
23755;DHT22;12057;52.042;6.830;2022-08-19T20:18:57;21.30;99.90
23755;DHT22;12057;52.042;6.830;2022-08-19T20:23:59;21.30;99.90
23755;DHT22;12057;52.042;6.830;2022-08-19T20:29:00;21.30;99.90
23755;DHT22;12057;52.042;6.830;2022-08-19T20:34:01;21.30;99.90
23755;DHT22;12057;52.042;6.830;2022-08-19T20:39:03;21.30;99.90
23755;DHT22;12057;52.042;6.830;2022-08-19T20:44:04;21.30;99.90
23755;DHT22;12057;52.042;6.830;2022-08-19T20:49:05;21.30;99.90
23755;DHT22;12057;52.042;6.830;2022-08-19T20:54:07;21.30;99.90
23755;DHT22;12057;52.042;6.830;2022-08-19T20:59:08;21.30;99.90
23755;DHT22;12057;52.042;6.830;2022-08-19T21:04:09;21.20;99.90
23755;DHT22;12057;52.042;6.830;2022-08-19T21:09:10;21.20;99.90
23755;DHT22;12057;52.042;6.830;2022-08-19T21:14:11;21.10;99.90
23755;DHT22;12057;52.042;6.830;2022-08-19T21:19:12;21.00;99.90
23755;DHT22;12057;52.042;6.830;2022-08-19T21:24:19;21.00;99.90
23755;DHT22;12057;52.042;6.830;2022-08-19T21:29:19;20.90;99.90
23755;DHT22;12057;52.042;6.830;2022-08-19T21:34:20;20.90;99.90
23755;DHT22;12057;52.042;6.830;2022-08-19T21:39:21;20.90;99.90
23755;DHT22;12057;52.042;6.830;2022-08-19T21:44:21;21.00;99.90
23755;DHT22;12057;52.042;6.830;2022-08-19T21:49:22;21.00;99.90
23755;DHT22;12057;52.042;6.830;2022-08-19T21:54:26;21.00;99.90
23755;DHT22;12057;52.042;6.830;2022-08-19T21:59:26;21.00;99.90
23755;DHT22;12057;52.042;6.830;2022-08-19T22:04:27;21.00;99.90
23755;DHT22;12057;52.042;6.830;2022-08-19T22:09:28;21.00;99.90
23755;DHT22;12057;52.042;6.830;2022-08-19T22:14:28;21.00;99.90
23755;DHT22;12057;52.042;6.830;2022-08-19T22:19:29;21.00;99.90
23755;DHT22;12057;52.042;6.830;2022-08-19T22:24:30;21.00;99.90
23755;DHT22;12057;52.042;6.830;2022-08-19T22:29:31;20.90;99.90
23755;DHT22;12057;52.042;6.830;2022-08-19T22:34:31;20.90;99.90
23755;DHT22;12057;52.042;6.830;2022-08-19T22:39:32;21.00;99.90
23755;DHT22;12057;52.042;6.830;2022-08-19T22:44:33;21.00;99.90
23755;DHT22;12057;52.042;6.830;2022-08-19T22:49:34;21.00;99.90
23755;DHT22;12057;52.042;6.830;2022-08-19T22:54:40;21.00;99.90
23755;DHT22;12057;52.042;6.830;2022-08-19T22:59:41;20.90;99.90
23755;DHT22;12057;52.042;6.830;2022-08-19T23:04:42;20.90;99.90
23755;DHT22;12057;52.042;6.830;2022-08-19T23:09:42;20.90;99.90
23755;DHT22;12057;52.042;6.830;2022-08-19T23:14:43;20.90;99.90
23755;DHT22;12057;52.042;6.830;2022-08-19T23:19:44;20.90;99.90
23755;DHT22;12057;52.042;6.830;2022-08-19T23:24:44;20.90;99.90
23755;DHT22;12057;52.042;6.830;2022-08-19T23:29:45;20.90;99.90
23755;DHT22;12057;52.042;6.830;2022-08-19T23:35:04;20.90;99.90
23755;DHT22;12057;52.042;6.830;2022-08-19T23:40:05;20.80;99.90
23755;DHT22;12057;52.042;6.830;2022-08-19T23:45:07;20.80;99.90
23755;DHT22;12057;52.042;6.830;2022-08-19T23:50:09;20.80;99.90
23755;DHT22;12057;52.042;6.830;2022-08-19T23:55:10;20.80;99.90
